Time;durP1;ratioP1;P1;durP2;ratioP2;P2;SDS_P1;SDS_P2;PMS_P1;PMS_P2;Temp;Humidity;BMP_temperature;BMP_pressure;BME280_temperature;BME280_humidity;BME280_pressure;Samples;Min_cycle;Max_cycle;Signal;HPM_P1;HPM_P2
2023/08/27 00:02:24;;;;;;;19.05;12.23;;;;;;;;;;8420158;28;20086;-88
2023/08/27 00:06:27;;;;;;;18.98;14.55;;;;;;;;;;8430177;28;20062;-91
2023/08/27 00:10:30;;;;;;;20.75;15.40;;;;;;;;;;8430263;28;20044;-91
2023/08/27 00:14:34;;;;;;;18.13;12.50;;;;;;;;;;8428726;28;20051;-88
2023/08/27 00:18:37;;;;;;;15.73;11.68;;;;;;;;;;8419846;28;20436;-89
2023/08/27 00:22:40;;;;;;;17.10;11.05;;;;;;;;;;8428994;28;20503;-88
2023/08/27 00:26:43;;;;;;;19.60;12.25;;;;;;;;;;8421611;28;20040;-91
2023/08/27 00:30:47;;;;;;;16.70;11.43;;;;;;;;;;8417232;28;20051;-88
2023/08/27 00:34:50;;;;;;;14.80;10.73;;;;;;;;;;8414002;28;20448;-87
2023/08/27 00:38:52;;;;;;;16.33;11.35;;;;;;;;;;8415208;28;20067;-89
2023/08/27 00:42:55;;;;;;;17.08;10.52;;;;;;;;;;8424631;28;20501;-90
2023/08/27 00:47:00;;;;;;;22.08;11.25;;;;;;;;;;8414694;28;20041;-89
2023/08/27 00:51:04;;;;;;;20.95;12.13;;;;;;;;;;8415165;28;20046;-89
2023/08/27 00:55:08;;;;;;;16.80;11.25;;;;;;;;;;8408466;28;20083;-87
2023/08/27 00:59:11;;;;;;;25.10;13.63;;;;;;;;;;8413391;28;20044;-85
2023/08/27 01:03:15;;;;;;;31.20;14.85;;;;;;;;;;8414620;28;20051;-86
2023/08/27 01:07:27;;;;;;;24.80;13.43;;;;;;;;;;8416577;28;20051;-86
2023/08/27 01:11:35;;;;;;;26.42;13.25;;;;;;;;;;8413999;28;20071;-86
2023/08/27 01:15:39;;;;;;;33.30;14.60;;;;;;;;;;8422925;28;20051;-87
2023/08/27 01:19:44;;;;;;;25.92;13.57;;;;;;;;;;8423855;28;20056;-90
2023/08/27 01:23:48;;;;;;;20.77;13.85;;;;;;;;;;8420318;28;20407;-88
2023/08/27 01:28:04;;;;;;;22.02;13.80;;;;;;;;;;8419683;28;20480;-89
2023/08/27 01:32:13;;;;;;;21.25;14.45;;;;;;;;;;8408141;28;20071;-86
2023/08/27 01:36:16;;;;;;;28.02;15.95;;;;;;;;;;8416670;28;20093;-91
2023/08/27 01:40:20;;;;;;;28.40;18.80;;;;;;;;;;8404879;28;20170;-88
2023/08/27 01:44:23;;;;;;;22.77;14.40;;;;;;;;;;8415292;28;20165;-88
2023/08/27 01:48:25;;;;;;;26.05;15.88;;;;;;;;;;8418405;28;20040;-88
2023/08/27 01:52:28;;;;;;;25.02;16.23;;;;;;;;;;8423324;28;20040;-90
2023/08/27 01:56:32;;;;;;;21.30;13.27;;;;;;;;;;8434809;28;20036;-91
2023/08/27 02:00:35;;;;;;;22.05;13.48;;;;;;;;;;8430058;28;20122;-93
2023/08/27 02:04:38;;;;;;;27.45;14.35;;;;;;;;;;8421531;28;20461;-92
2023/08/27 02:08:40;;;;;;;22.63;14.98;;;;;;;;;;8428667;28;20052;-90
2023/08/27 02:12:44;;;;;;;27.25;15.07;;;;;;;;;;8433603;28;20046;-91
2023/08/27 02:16:47;;;;;;;24.17;15.48;;;;;;;;;;8426206;28;20046;-91
2023/08/27 02:20:50;;;;;;;25.15;15.02;;;;;;;;;;8432950;28;20048;-90
2023/08/27 02:24:53;;;;;;;21.77;13.77;;;;;;;;;;8424980;28;20113;-90
2023/08/27 02:28:57;;;;;;;31.92;16.90;;;;;;;;;;8432713;28;20051;-90
2023/08/27 02:33:24;;;;;;;26.90;15.27;;;;;;;;;;8428322;28;20131;-92
2023/08/27 02:37:27;;;;;;;25.65;16.42;;;;;;;;;;8428196;28;20047;-89
2023/08/27 02:41:30;;;;;;;26.45;16.00;;;;;;;;;;8432331;28;20051;-86
2023/08/27 02:45:34;;;;;;;19.42;12.52;;;;;;;;;;8426975;28;20043;-85
2023/08/27 02:49:37;;;;;;;21.10;13.02;;;;;;;;;;8415937;28;20516;-86
2023/08/27 02:53:40;;;;;;;20.55;13.52;;;;;;;;;;8431915;28;20052;-89
2023/08/27 02:57:42;;;;;;;19.92;12.57;;;;;;;;;;8431596;28;20052;-86
2023/08/27 03:01:46;;;;;;;21.15;13.15;;;;;;;;;;8420556;28;20043;-87
2023/08/27 03:05:49;;;;;;;18.42;12.73;;;;;;;;;;8423647;28;20476;-87
2023/08/27 03:09:52;;;;;;;15.65;11.55;;;;;;;;;;8412030;28;20535;-89
2023/08/27 03:13:55;;;;;;;17.13;10.18;;;;;;;;;;8428596;28;20419;-88
2023/08/27 03:17:58;;;;;;;14.65;9.32;;;;;;;;;;8432437;28;20040;-90
2023/08/27 03:22:01;;;;;;;15.18;9.93;;;;;;;;;;8432607;28;20062;-89
2023/08/27 03:26:04;;;;;;;14.40;9.77;;;;;;;;;;8421324;28;20085;-91
2023/08/27 03:30:08;;;;;;;15.25;8.60;;;;;;;;;;8431316;28;20051;-86
2023/08/27 03:34:12;;;;;;;10.90;8.13;;;;;;;;;;8431007;28;20052;-87
2023/08/27 03:38:14;;;;;;;12.52;8.82;;;;;;;;;;8407253;28;20048;-87
2023/08/27 03:42:17;;;;;;;11.45;7.93;;;;;;;;;;8422527;28;20048;-91
2023/08/27 03:46:19;;;;;;;11.40;7.63;;;;;;;;;;8430947;28;20048;-89
2023/08/27 03:50:24;;;;;;;11.50;8.18;;;;;;;;;;8430766;28;20123;-88
2023/08/27 03:54:27;;;;;;;13.25;8.18;;;;;;;;;;8420135;28;20080;-91
2023/08/27 03:58:31;;;;;;;12.85;9.32;;;;;;;;;;8422801;28;20496;-87
2023/08/27 04:02:33;;;;;;;13.85;9.27;;;;;;;;;;8428021;28;20051;-90
2023/08/27 04:06:37;;;;;;;15.38;9.90;;;;;;;;;;8430520;28;20051;-90
2023/08/27 04:10:40;;;;;;;13.50;9.38;;;;;;;;;;8429855;28;20113;-90
2023/08/27 04:14:42;;;;;;;13.75;9.45;;;;;;;;;;8430120;28;20047;-89
2023/08/27 04:18:45;;;;;;;30.67;11.63;;;;;;;;;;8430169;28;20051;-87
2023/08/27 04:22:49;;;;;;;34.40;11.35;;;;;;;;;;8430028;28;20055;-88
2023/08/27 04:26:52;;;;;;;16.80;10.73;;;;;;;;;;8429619;28;20044;-90
2023/08/27 04:30:55;;;;;;;16.13;11.25;;;;;;;;;;8423257;28;20085;-89
2023/08/27 04:34:57;;;;;;;17.63;11.30;;;;;;;;;;8429553;28;20118;-89
2023/08/27 04:39:02;;;;;;;12.90;9.48;;;;;;;;;;8429357;28;20035;-90
2023/08/27 04:43:05;;;;;;;19.00;11.60;;;;;;;;;;8429322;28;20138;-86
2023/08/27 04:47:07;;;;;;;17.50;11.48;;;;;;;;;;8429060;28;20040;-88
2023/08/27 04:51:10;;;;;;;19.92;11.88;;;;;;;;;;8415778;28;20105;-88
2023/08/27 04:55:14;;;;;;;16.35;10.73;;;;;;;;;;8429558;28;20476;-88
2023/08/27 04:59:17;;;;;;;14.18;10.02;;;;;;;;;;8429067;28;20115;-91
2023/08/27 05:03:19;;;;;;;31.95;17.17;;;;;;;;;;8426153;28;20460;-85
2023/08/27 05:07:22;;;;;;;22.48;15.98;;;;;;;;;;8429059;28;20399;-88
2023/08/27 05:11:26;;;;;;;15.73;9.98;;;;;;;;;;8414667;28;20048;-90
2023/08/27 05:15:29;;;;;;;12.00;9.30;;;;;;;;;;8418886;28;20089;-90
2023/08/27 05:19:32;;;;;;;14.63;11.38;;;;;;;;;;8425915;28;20430;-89
2023/08/27 05:23:34;;;;;;;12.68;10.10;;;;;;;;;;8430873;28;20039;-88
2023/08/27 05:27:44;;;;;;;11.88;8.75;;;;;;;;;;8418545;28;20040;-90
2023/08/27 05:31:47;;;;;;;10.90;8.65;;;;;;;;;;8430631;28;20060;-88
2023/08/27 05:35:50;;;;;;;13.30;8.15;;;;;;;;;;8424616;28;20052;-91
2023/08/27 05:39:52;;;;;;;11.68;7.13;;;;;;;;;;8433353;28;20040;-90
2023/08/27 05:43:56;;;;;;;10.80;7.22;;;;;;;;;;8430806;28;20127;-90
2023/08/27 05:47:59;;;;;;;9.27;6.43;;;;;;;;;;8417905;28;20047;-91
2023/08/27 05:52:03;;;;;;;13.75;7.95;;;;;;;;;;8413701;28;20045;-91
2023/08/27 05:56:05;;;;;;;10.73;6.63;;;;;;;;;;8433123;28;20514;-88
2023/08/27 06:00:11;;;;;;;8.85;6.03;;;;;;;;;;8432636;28;20040;-90
2023/08/27 06:04:14;;;;;;;10.60;7.47;;;;;;;;;;8421117;28;20485;-87
2023/08/27 06:08:16;;;;;;;9.30;6.63;;;;;;;;;;8427945;28;20040;-90
2023/08/27 06:12:19;;;;;;;11.07;6.85;;;;;;;;;;8430726;28;20046;-88
2023/08/27 06:16:23;;;;;;;7.25;5.28;;;;;;;;;;8430864;28;20036;-87
2023/08/27 06:20:25;;;;;;;8.05;5.30;;;;;;;;;;8433854;28;20047;-87
2023/08/27 06:24:28;;;;;;;7.53;5.00;;;;;;;;;;8433645;28;20044;-86
2023/08/27 06:28:31;;;;;;;9.95;5.72;;;;;;;;;;8424279;28;20048;-87
2023/08/27 06:32:36;;;;;;;8.25;5.85;;;;;;;;;;8429851;28;20060;-88
2023/08/27 06:36:38;;;;;;;6.60;4.80;;;;;;;;;;8432237;28;20047;-89
2023/08/27 06:40:41;;;;;;;7.25;4.78;;;;;;;;;;8433292;28;20105;-86
2023/08/27 06:44:44;;;;;;;6.55;4.45;;;;;;;;;;8433146;28;20116;-86
2023/08/27 06:48:48;;;;;;;8.02;4.30;;;;;;;;;;8409415;28;20134;-88
2023/08/27 06:52:51;;;;;;;6.15;3.70;;;;;;;;;;8418367;28;20051;-90
2023/08/27 06:56:54;;;;;;;9.32;4.43;;;;;;;;;;8429710;28;20093;-89
2023/08/27 07:00:57;;;;;;;6.93;4.30;;;;;;;;;;8424227;28;20111;-89
2023/08/27 07:05:08;;;;;;;6.38;4.10;;;;;;;;;;8422400;28;20044;-92
2023/08/27 07:09:13;;;;;;;7.38;4.85;;;;;;;;;;8413544;28;20052;-93
2023/08/27 07:13:29;;;;;;;7.53;4.32;;;;;;;;;;8412459;28;20119;-90
2023/08/27 07:17:33;;;;;;;6.65;4.40;;;;;;;;;;8408735;28;20066;-91
2023/08/27 07:21:46;;;;;;;8.93;4.22;;;;;;;;;;8438745;28;20047;-93
2023/08/27 07:26:08;;;;;;;6.47;4.30;;;;;;;;;;8421308;28;20052;-88
2023/08/27 07:30:18;;;;;;;7.63;3.85;;;;;;;;;;8418677;28;20104;-92
2023/08/27 07:34:21;;;;;;;5.32;3.40;;;;;;;;;;8428856;28;20056;-92
2023/08/27 07:38:27;;;;;;;5.60;3.67;;;;;;;;;;8406695;28;20048;-91
2023/08/27 07:42:30;;;;;;;6.53;3.50;;;;;;;;;;8414948;28;20068;-93
2023/08/27 07:46:33;;;;;;;6.25;3.90;;;;;;;;;;8419652;28;20142;-93
2023/08/27 07:50:36;;;;;;;5.38;3.03;;;;;;;;;;8421498;28;20082;-90
2023/08/27 07:54:40;;;;;;;4.85;3.30;;;;;;;;;;8413780;28;20050;-93
2023/08/27 07:58:43;;;;;;;3.63;2.65;;;;;;;;;;8417664;28;20047;-93
2023/08/27 08:02:46;;;;;;;6.20;2.80;;;;;;;;;;8425071;28;20044;-94
2023/08/27 08:06:49;;;;;;;5.88;2.90;;;;;;;;;;8410070;28;20051;-90
2023/08/27 08:10:59;;;;;;;4.28;2.50;;;;;;;;;;8416787;28;20068;-93
2023/08/27 08:15:02;;;;;;;3.70;2.90;;;;;;;;;;8424032;28;20051;-89
2023/08/27 08:19:05;;;;;;;7.20;3.30;;;;;;;;;;8414075;28;20114;-89
2023/08/27 08:23:09;;;;;;;5.15;2.53;;;;;;;;;;8405569;28;20400;-89
2023/08/27 08:27:14;;;;;;;4.45;2.55;;;;;;;;;;8404025;28;20052;-89
2023/08/27 08:31:17;;;;;;;4.10;2.83;;;;;;;;;;8409399;28;20091;-89
2023/08/27 08:35:20;;;;;;;4.85;2.90;;;;;;;;;;8418029;28;20047;-89
2023/08/27 08:39:25;;;;;;;3.97;2.63;;;;;;;;;;8412744;28;20054;-91
2023/08/27 08:43:37;;;;;;;3.38;2.30;;;;;;;;;;8404091;28;20053;-88
2023/08/27 08:47:41;;;;;;;5.07;2.63;;;;;;;;;;8424009;28;20052;-88
2023/08/27 08:51:46;;;;;;;5.05;2.70;;;;;;;;;;8424240;28;20071;-90
2023/08/27 08:55:57;;;;;;;4.13;2.75;;;;;;;;;;8419097;28;20051;-89
2023/08/27 09:00:07;;;;;;;5.32;2.75;;;;;;;;;;8422313;28;20047;-88
2023/08/27 09:04:14;;;;;;;6.23;3.13;;;;;;;;;;8402941;28;20048;-90
2023/08/27 09:08:17;;;;;;;6.50;3.83;;;;;;;;;;8413668;28;20143;-90
2023/08/27 09:12:21;;;;;;;5.90;3.67;;;;;;;;;;8405333;28;20101;-90
2023/08/27 09:16:27;;;;;;;6.03;3.35;;;;;;;;;;8418494;28;20047;-90
2023/08/27 09:20:30;;;;;;;5.72;3.53;;;;;;;;;;8416322;28;20127;-90
2023/08/27 09:24:33;;;;;;;7.25;3.50;;;;;;;;;;8415315;28;20064;-93
2023/08/27 09:28:36;;;;;;;5.70;3.60;;;;;;;;;;8412557;28;20572;-92
2023/08/27 09:32:41;;;;;;;6.32;3.65;;;;;;;;;;8408868;28;20179;-92
2023/08/27 09:36:44;;;;;;;5.70;3.75;;;;;;;;;;8410245;28;20036;-96
2023/08/27 09:40:47;;;;;;;4.70;3.33;;;;;;;;;;8413371;28;20488;-94
2023/08/27 09:44:52;;;;;;;7.18;3.40;;;;;;;;;;8421166;28;20550;-93
2023/08/27 09:49:04;;;;;;;5.45;3.80;;;;;;;;;;8410367;28;20043;-94
2023/08/27 09:53:13;;;;;;;7.05;3.75;;;;;;;;;;8413120;28;20167;-93
2023/08/27 09:57:19;;;;;;;6.72;3.80;;;;;;;;;;8421070;28;20400;-93
2023/08/27 10:01:53;;;;;;;5.88;3.60;;;;;;;;;;8413723;28;20079;-93
2023/08/27 10:06:04;;;;;;;6.68;3.85;;;;;;;;;;8405693;28;20059;-92
2023/08/27 10:10:08;;;;;;;7.22;4.07;;;;;;;;;;8415150;28;20074;-91
2023/08/27 10:14:11;;;;;;;5.13;3.47;;;;;;;;;;8424825;28;20118;-92
2023/08/27 10:18:14;;;;;;;7.30;3.72;;;;;;;;;;8423695;28;20040;-91
2023/08/27 10:22:22;;;;;;;6.28;3.65;;;;;;;;;;8422686;28;20177;-92
2023/08/27 10:26:25;;;;;;;4.38;3.15;;;;;;;;;;8409381;28;20036;-93
2023/08/27 10:30:29;;;;;;;5.53;3.05;;;;;;;;;;8417933;28;20048;-91
2023/08/27 10:34:32;;;;;;;4.05;3.20;;;;;;;;;;8411286;28;20130;-93
2023/08/27 10:38:39;;;;;;;5.90;3.28;;;;;;;;;;8409621;28;20048;-92
2023/08/27 10:42:43;;;;;;;6.50;3.53;;;;;;;;;;8419072;28;20120;-93
2023/08/27 10:47:07;;;;;;;5.40;3.20;;;;;;;;;;8419938;28;20051;-91
2023/08/27 10:51:14;;;;;;;5.65;3.60;;;;;;;;;;8421977;28;20151;-92
2023/08/27 10:55:21;;;;;;;5.18;3.45;;;;;;;;;;8427400;28;20044;-90
2023/08/27 10:59:30;;;;;;;4.25;3.25;;;;;;;;;;8428067;28;20081;-90
2023/08/27 11:03:57;;;;;;;4.22;3.03;;;;;;;;;;8418682;28;20170;-90
2023/08/27 11:08:00;;;;;;;4.55;3.25;;;;;;;;;;8421534;28;20072;-90
2023/08/27 11:12:06;;;;;;;5.35;3.30;;;;;;;;;;8404840;28;20045;-91
2023/08/27 11:16:15;;;;;;;5.65;3.53;;;;;;;;;;8417474;28;20044;-91
2023/08/27 11:20:24;;;;;;;4.50;3.40;;;;;;;;;;8420622;28;20056;-93
2023/08/27 11:24:28;;;;;;;4.50;3.47;;;;;;;;;;8413550;28;20056;-90
2023/08/27 11:28:33;;;;;;;5.20;3.67;;;;;;;;;;8421591;28;20052;-91
2023/08/27 11:32:36;;;;;;;5.88;3.83;;;;;;;;;;8412529;28;20059;-93
2023/08/27 11:36:43;;;;;;;6.40;3.72;;;;;;;;;;8417866;28;20052;-90
2023/08/27 11:40:48;;;;;;;6.15;4.00;;;;;;;;;;8425468;28;20063;-92
2023/08/27 11:44:54;;;;;;;5.00;3.92;;;;;;;;;;8416716;28;20101;-93
2023/08/27 11:48:57;;;;;;;7.68;3.72;;;;;;;;;;8397292;28;20558;-92
2023/08/27 11:53:01;;;;;;;6.13;3.72;;;;;;;;;;8426163;28;20048;-93
2023/08/27 11:57:06;;;;;;;5.55;3.70;;;;;;;;;;8425965;28;20040;-93
2023/08/27 12:11:49;;;;;;;5.55;3.67;;;;;;;;;;8421109;28;20119;-91
2023/08/27 12:15:54;;;;;;;6.25;3.50;;;;;;;;;;8414417;28;20044;-92
2023/08/27 12:20:01;;;;;;;6.10;3.50;;;;;;;;;;8415543;28;20076;-94
2023/08/27 12:24:04;;;;;;;5.53;3.40;;;;;;;;;;8414812;28;20094;-93
2023/08/27 12:28:07;;;;;;;5.72;3.53;;;;;;;;;;8413162;28;20135;-93
2023/08/27 12:32:12;;;;;;;5.32;3.53;;;;;;;;;;8427645;28;20655;-93
2023/08/27 12:36:16;;;;;;;6.30;4.00;;;;;;;;;;8421368;28;20039;-92
2023/08/27 12:40:19;;;;;;;4.93;3.55;;;;;;;;;;8419038;28;20122;-93
2023/08/27 12:55:09;;;;;;;6.18;4.15;;;;;;;;;;8526212;22;20022;-92
2023/08/27 13:14:47;;;;;;;5.60;3.95;;;;;;;;;;8398956;22;20061;-92
2023/08/27 13:18:53;;;;;;;8.27;4.10;;;;;;;;;;8316627;28;20042;-92
2023/08/27 13:22:57;;;;;;;6.07;3.90;;;;;;;;;;8309151;28;20050;-93
2023/08/27 13:27:02;;;;;;;5.30;3.78;;;;;;;;;;8307295;28;20046;-93
2023/08/27 13:46:36;;;;;;;8.43;4.78;;;;;;;;;;8245357;28;20057;-93
2023/08/27 13:50:40;;;;;;;6.38;4.22;;;;;;;;;;8245204;28;20050;-94
2023/08/27 13:54:46;;;;;;;6.78;4.40;;;;;;;;;;8252862;28;20061;-94
2023/08/27 13:58:52;;;;;;;6.20;4.45;;;;;;;;;;8247330;28;20062;-93
2023/08/27 14:02:57;;;;;;;6.72;4.30;;;;;;;;;;8241724;28;20046;-94
2023/08/27 14:07:00;;;;;;;8.80;4.18;;;;;;;;;;8231853;28;20069;-94
2023/08/27 14:11:05;;;;;;;6.07;4.07;;;;;;;;;;8254929;28;20058;-93
2023/08/27 14:20:30;;;;;;;5.82;4.07;;;;;;;;;;8480441;22;20060;-93
2023/08/27 14:34:41;;;;;;;6.43;4.38;;;;;;;;;;8269736;28;20101;-93
2023/08/27 14:44:16;;;;;;;5.85;4.60;;;;;;;;;;8256448;28;20092;-93
2023/08/27 14:48:21;;;;;;;6.53;4.35;;;;;;;;;;8279522;28;20073;-92
2023/08/27 14:52:25;;;;;;;7.30;4.60;;;;;;;;;;8266114;28;20112;-93
2023/08/27 14:56:30;;;;;;;6.28;4.40;;;;;;;;;;8254631;28;20513;-92
2023/08/27 15:00:36;;;;;;;6.75;4.65;;;;;;;;;;8285184;28;20099;-93
2023/08/27 15:04:41;;;;;;;7.88;4.90;;;;;;;;;;8272853;28;20054;-93
2023/08/27 15:08:47;;;;;;;7.80;4.63;;;;;;;;;;8271611;28;20141;-93
2023/08/27 15:12:52;;;;;;;7.75;5.15;;;;;;;;;;8345459;28;20556;-92
2023/08/27 15:16:58;;;;;;;5.85;4.65;;;;;;;;;;8342871;28;20436;-93
2023/08/27 15:21:02;;;;;;;8.60;4.93;;;;;;;;;;8339113;28;20052;-92
2023/08/27 15:25:08;;;;;;;6.70;4.85;;;;;;;;;;8345015;28;20037;-93
2023/08/27 15:29:12;;;;;;;9.23;5.55;;;;;;;;;;8323279;28;20053;-93
2023/08/27 15:33:18;;;;;;;6.13;5.18;;;;;;;;;;8354691;28;20045;-94
2023/08/27 15:37:22;;;;;;;6.60;4.70;;;;;;;;;;8340394;28;20120;-96
2023/08/27 15:41:26;;;;;;;6.70;5.10;;;;;;;;;;8354706;28;20049;-94
2023/08/27 15:45:30;;;;;;;8.15;5.22;;;;;;;;;;8332407;28;20180;-95
2023/08/27 15:49:36;;;;;;;7.35;5.55;;;;;;;;;;8364188;28;20045;-93
2023/08/27 15:53:40;;;;;;;8.13;5.50;;;;;;;;;;8368181;28;20079;-95
2023/08/27 15:57:45;;;;;;;8.85;5.05;;;;;;;;;;8367655;28;20133;-95
2023/08/27 16:01:49;;;;;;;8.40;5.07;;;;;;;;;;8348499;28;20052;-94
2023/08/27 16:05:55;;;;;;;7.10;4.75;;;;;;;;;;8327782;28;20151;-95
2023/08/27 16:10:01;;;;;;;6.35;5.00;;;;;;;;;;8349246;28;20049;-94
2023/08/27 16:14:05;;;;;;;7.30;5.65;;;;;;;;;;8352168;28;20056;-93
2023/08/27 16:18:09;;;;;;;7.55;5.75;;;;;;;;;;8352879;28;20048;-95
2023/08/27 16:22:15;;;;;;;8.75;6.00;;;;;;;;;;8340144;28;20049;-95
2023/08/27 16:26:20;;;;;;;6.95;5.57;;;;;;;;;;8310281;28;20051;-94
2023/08/27 16:30:24;;;;;;;7.35;5.78;;;;;;;;;;8308593;28;20166;-93
2023/08/27 16:34:28;;;;;;;8.65;6.40;;;;;;;;;;8309872;28;20045;-90
2023/08/27 16:38:34;;;;;;;7.35;6.53;;;;;;;;;;8301128;28;20046;-89
2023/08/27 16:42:46;;;;;;;8.25;6.53;;;;;;;;;;8295501;28;20414;-89
2023/08/27 16:46:52;;;;;;;9.05;6.78;;;;;;;;;;8310601;28;20045;-87
2023/08/27 16:51:01;;;;;;;8.70;6.28;;;;;;;;;;8313698;28;20133;-90
2023/08/27 16:55:08;;;;;;;10.48;7.45;;;;;;;;;;8300826;28;20072;-90
2023/08/27 16:59:12;;;;;;;8.30;6.40;;;;;;;;;;8304817;28;20049;-90
2023/08/27 17:03:17;;;;;;;9.80;7.15;;;;;;;;;;8305036;28;20042;-90
2023/08/27 17:07:21;;;;;;;11.63;7.30;;;;;;;;;;8308028;28;20045;-89
2023/08/27 17:11:27;;;;;;;8.70;6.85;;;;;;;;;;8300536;28;20087;-90
2023/08/27 17:15:32;;;;;;;9.90;7.47;;;;;;;;;;8300964;28;20069;-89
2023/08/27 17:19:40;;;;;;;10.93;7.60;;;;;;;;;;8309694;28;20042;-93
2023/08/27 17:23:53;;;;;;;9.75;7.50;;;;;;;;;;8324925;28;20049;-91
2023/08/27 17:27:59;;;;;;;11.25;7.90;;;;;;;;;;8326065;28;20516;-91
2023/08/27 17:32:03;;;;;;;12.05;7.80;;;;;;;;;;8313939;28;20504;-92
2023/08/27 17:36:08;;;;;;;12.27;8.75;;;;;;;;;;8323423;28;20091;-90
2023/08/27 17:40:13;;;;;;;10.95;8.20;;;;;;;;;;8322236;28;20052;-92
2023/08/27 17:44:19;;;;;;;10.57;8.18;;;;;;;;;;8318684;28;20049;-91
2023/08/27 17:48:24;;;;;;;10.35;8.75;;;;;;;;;;8323912;28;20037;-93
2023/08/27 17:52:28;;;;;;;13.15;9.65;;;;;;;;;;8325165;28;20362;-90
2023/08/27 17:56:34;;;;;;;11.32;9.68;;;;;;;;;;8318937;28;20040;-90
2023/08/27 18:00:40;;;;;;;13.60;10.10;;;;;;;;;;8321645;28;20037;-91
2023/08/27 18:04:46;;;;;;;14.07;10.95;;;;;;;;;;8316602;28;20475;-90
2023/08/27 18:08:50;;;;;;;16.40;12.27;;;;;;;;;;8311447;28;20449;-90
2023/08/27 18:12:55;;;;;;;14.13;11.50;;;;;;;;;;8326203;28;20430;-90
2023/08/27 18:17:00;;;;;;;16.10;11.10;;;;;;;;;;8309057;28;20414;-91
2023/08/27 18:21:06;;;;;;;17.73;12.23;;;;;;;;;;8310428;28;20046;-93
2023/08/27 18:25:10;;;;;;;16.85;13.02;;;;;;;;;;8310154;28;20125;-93
2023/08/27 18:29:14;;;;;;;18.27;14.07;;;;;;;;;;8313276;28;20132;-89
2023/08/27 18:33:20;;;;;;;20.52;14.25;;;;;;;;;;8317097;28;20052;-91
2023/08/27 18:37:27;;;;;;;24.02;16.20;;;;;;;;;;8316223;28;20133;-91
2023/08/27 18:41:33;;;;;;;21.15;15.25;;;;;;;;;;8301643;28;20049;-90
2023/08/27 18:45:38;;;;;;;21.50;15.32;;;;;;;;;;8314042;28;20505;-90
2023/08/27 18:49:50;;;;;;;23.30;13.23;;;;;;;;;;8315415;28;20132;-91
2023/08/27 18:53:57;;;;;;;19.92;13.18;;;;;;;;;;8324703;28;20145;-94
2023/08/27 18:58:02;;;;;;;22.60;15.38;;;;;;;;;;8312794;28;20077;-93
2023/08/27 19:02:09;;;;;;;32.78;19.75;;;;;;;;;;8321916;28;20049;-92
2023/08/27 19:06:16;;;;;;;28.98;20.00;;;;;;;;;;8333152;28;20053;-90
2023/08/27 19:10:26;;;;;;;25.10;16.35;;;;;;;;;;8325270;28;20049;-94
2023/08/27 19:14:32;;;;;;;22.58;16.73;;;;;;;;;;8328983;28;20550;-91
2023/08/27 19:18:37;;;;;;;27.20;17.27;;;;;;;;;;8331076;28;20500;-92
2023/08/27 19:22:42;;;;;;;23.35;15.82;;;;;;;;;;8331864;28;20065;-88
2023/08/27 19:26:54;;;;;;;24.15;16.60;;;;;;;;;;8330387;28;20042;-90
2023/08/27 19:31:05;;;;;;;28.77;19.30;;;;;;;;;;8323957;28;20057;-90
2023/08/27 19:35:11;;;;;;;27.98;18.90;;;;;;;;;;8331164;28;20041;-90
2023/08/27 19:39:18;;;;;;;31.15;19.40;;;;;;;;;;8331338;28;20045;-90
2023/08/27 19:43:23;;;;;;;33.05;20.45;;;;;;;;;;8331174;28;20045;-90
2023/08/27 19:47:30;;;;;;;30.60;17.42;;;;;;;;;;8331744;28;20074;-90
2023/08/27 19:51:37;;;;;;;31.65;19.10;;;;;;;;;;8331078;28;20045;-90
2023/08/27 19:55:53;;;;;;;46.92;23.00;;;;;;;;;;8330923;28;20168;-89
2023/08/27 20:00:00;;;;;;;27.98;17.48;;;;;;;;;;8331254;28;20043;-90
2023/08/27 20:04:07;;;;;;;23.30;15.27;;;;;;;;;;8330928;28;20053;-89
2023/08/27 20:08:15;;;;;;;27.33;15.85;;;;;;;;;;8296431;28;20060;-89
2023/08/27 20:12:21;;;;;;;25.50;16.95;;;;;;;;;;8330936;28;20047;-90
2023/08/27 20:16:29;;;;;;;35.65;19.45;;;;;;;;;;8330436;28;20045;-90
2023/08/27 20:20:33;;;;;;;29.02;17.58;;;;;;;;;;8330492;28;20490;-89
2023/08/27 20:24:38;;;;;;;30.35;20.35;;;;;;;;;;8314250;28;20046;-90
2023/08/27 20:28:46;;;;;;;23.67;15.50;;;;;;;;;;8330251;28;20103;-90
2023/08/27 20:32:51;;;;;;;30.10;20.27;;;;;;;;;;8258786;28;20046;-89
2023/08/27 20:36:54;;;;;;;33.15;19.02;;;;;;;;;;8259104;28;20053;-89
2023/08/27 20:41:02;;;;;;;29.45;18.08;;;;;;;;;;8264625;28;20058;-89
2023/08/27 20:45:09;;;;;;;24.08;16.45;;;;;;;;;;8264649;28;20049;-89
2023/08/27 20:49:16;;;;;;;33.80;19.60;;;;;;;;;;8263934;28;20479;-90
2023/08/27 20:53:20;;;;;;;30.40;18.55;;;;;;;;;;8263846;28;20038;-90
2023/08/27 20:57:26;;;;;;;33.35;19.20;;;;;;;;;;8264252;28;20045;-89
2023/08/27 21:01:31;;;;;;;28.80;18.25;;;;;;;;;;8264277;28;20529;-89
2023/08/27 21:05:34;;;;;;;33.67;19.70;;;;;;;;;;8264359;28;20042;-89
2023/08/27 21:09:36;;;;;;;53.85;27.30;;;;;;;;;;8264175;28;20050;-90
2023/08/27 21:13:39;;;;;;;56.97;28.50;;;;;;;;;;8263988;28;20095;-90
2023/08/27 21:17:44;;;;;;;64.45;30.85;;;;;;;;;;8264090;28;20491;-90
2023/08/27 21:21:47;;;;;;;71.63;33.78;;;;;;;;;;8263085;28;20058;-91
2023/08/27 21:25:51;;;;;;;85.38;36.63;;;;;;;;;;8263466;28;20042;-90
2023/08/27 21:29:53;;;;;;;100.43;40.95;;;;;;;;;;8281189;28;20064;-89
2023/08/27 21:33:57;;;;;;;95.38;38.38;;;;;;;;;;8327313;28;20046;-90
2023/08/27 21:38:00;;;;;;;83.13;36.63;;;;;;;;;;8327619;28;20496;-90
2023/08/27 21:42:04;;;;;;;80.13;36.97;;;;;;;;;;8327502;28;20053;-90
2023/08/27 21:46:07;;;;;;;53.28;24.17;;;;;;;;;;8327968;28;20095;-90
2023/08/27 21:50:11;;;;;;;43.00;22.70;;;;;;;;;;8326051;28;20047;-90
2023/08/27 21:54:14;;;;;;;46.40;24.50;;;;;;;;;;8328113;28;20041;-90
2023/08/27 21:58:17;;;;;;;43.88;23.98;;;;;;;;;;8328337;28;20129;-90
2023/08/27 22:02:20;;;;;;;47.40;22.83;;;;;;;;;;8328777;28;20060;-90
2023/08/27 22:06:24;;;;;;;57.25;28.80;;;;;;;;;;8332957;28;20046;-90
2023/08/27 22:10:27;;;;;;;60.10;30.92;;;;;;;;;;8334348;28;20124;-90
2023/08/27 22:14:31;;;;;;;67.43;32.38;;;;;;;;;;8334237;28;20049;-89
2023/08/27 22:18:34;;;;;;;85.60;37.00;;;;;;;;;;8329562;28;20042;-89
2023/08/27 22:22:38;;;;;;;82.45;34.97;;;;;;;;;;8324434;28;20053;-90
2023/08/27 22:26:41;;;;;;;86.45;37.47;;;;;;;;;;8331340;28;20397;-90
2023/08/27 22:30:44;;;;;;;96.45;39.95;;;;;;;;;;8330197;28;20417;-89
2023/08/27 22:34:48;;;;;;;90.90;39.97;;;;;;;;;;8342980;28;20144;-90
2023/08/27 22:38:52;;;;;;;104.82;44.08;;;;;;;;;;8333888;28;20061;-89
2023/08/27 22:42:55;;;;;;;92.60;40.72;;;;;;;;;;8333200;28;20045;-90
2023/08/27 22:46:58;;;;;;;79.50;36.80;;;;;;;;;;8332623;28;20412;-90
2023/08/27 22:51:01;;;;;;;77.10;37.20;;;;;;;;;;8326197;28;20671;-89
2023/08/27 22:55:06;;;;;;;71.15;36.45;;;;;;;;;;8332197;28;20512;-90
2023/08/27 22:59:10;;;;;;;67.75;36.28;;;;;;;;;;8332410;28;20050;-89
2023/08/27 23:03:13;;;;;;;72.47;39.17;;;;;;;;;;8332422;28;20203;-89
2023/08/27 23:07:16;;;;;;;67.45;36.97;;;;;;;;;;8332536;28;20104;-89
2023/08/27 23:11:20;;;;;;;72.70;37.03;;;;;;;;;;8331804;28;20497;-91
2023/08/27 23:15:22;;;;;;;75.80;37.38;;;;;;;;;;8331432;28;20041;-91
2023/08/27 23:19:27;;;;;;;63.55;35.55;;;;;;;;;;8327976;28;20049;-91
2023/08/27 23:23:31;;;;;;;62.67;33.13;;;;;;;;;;8328247;28;20049;-90
2023/08/27 23:27:35;;;;;;;53.53;30.48;;;;;;;;;;8318740;28;20038;-90
2023/08/27 23:31:38;;;;;;;50.05;28.40;;;;;;;;;;8319531;28;20062;-91
2023/08/27 23:35:42;;;;;;;46.58;27.52;;;;;;;;;;8329187;28;20041;-90
2023/08/27 23:39:45;;;;;;;51.65;28.80;;;;;;;;;;8322883;28;20087;-89
2023/08/27 23:43:49;;;;;;;40.25;25.40;;;;;;;;;;8318624;28;20046;-90
2023/08/27 23:47:52;;;;;;;39.15;24.70;;;;;;;;;;8330318;28;20045;-90
2023/08/27 23:51:55;;;;;;;36.35;24.25;;;;;;;;;;8330367;28;20095;-90
2023/08/27 23:55:58;;;;;;;35.42;21.13;;;;;;;;;;8331125;28;20768;-88
